Time;durP1;ratioP1;P1;durP2;ratioP2;P2;SDS_P1;SDS_P2;PMS_P1;PMS_P2;Temp;Humidity;BMP_temperature;BMP_pressure;BME280_temperature;BME280_humidity;BME280_pressure;Samples;Min_cycle;Max_cycle;Signal;HPM_P1;HPM_P2
2022/03/31 00:02:15;;;;;;;21.73;17.13;;;8.90;99.90;;;;;;4978849;28;20210;-80
2022/03/31 00:04:42;;;;;;;24.15;17.45;;;8.90;99.90;;;;;;4978839;28;20236;-81
2022/03/31 00:07:09;;;;;;;23.58;17.70;;;8.90;99.90;;;;;;4978876;28;20207;-80
2022/03/31 00:09:36;;;;;;;24.10;17.85;;;8.90;99.90;;;;;;4979014;28;20597;-80
2022/03/31 00:12:05;;;;;;;20.10;16.92;;;8.90;99.90;;;;;;4978628;28;20217;-81
2022/03/31 00:14:31;;;;;;;25.67;19.27;;;8.90;99.90;;;;;;4978370;28;20272;-80
2022/03/31 00:16:58;;;;;;;24.42;16.33;;;8.90;99.90;;;;;;4978090;28;20611;-80
2022/03/31 00:19:25;;;;;;;24.77;18.42;;;8.90;99.90;;;;;;4978155;28;20232;-81
2022/03/31 00:21:51;;;;;;;23.45;17.98;;;8.90;99.90;;;;;;4977843;28;20216;-80
2022/03/31 00:24:18;;;;;;;28.95;19.27;;;8.90;99.90;;;;;;4978469;28;20248;-80
2022/03/31 00:26:45;;;;;;;23.27;19.83;;;8.90;99.90;;;;;;4977978;28;20204;-82
2022/03/31 00:29:13;;;;;;;24.95;19.60;;;8.90;99.90;;;;;;4977589;28;20201;-80
2022/03/31 00:31:40;;;;;;;23.50;17.05;;;8.90;99.90;;;;;;4977848;28;20208;-80
2022/03/31 00:34:07;;;;;;;24.83;18.30;;;8.80;99.90;;;;;;4978079;28;20224;-80
2022/03/31 00:36:33;;;;;;;21.05;17.20;;;8.80;99.90;;;;;;4978116;28;20217;-80
2022/03/31 00:41:45;;;;;;;21.67;16.70;;;8.80;99.90;;;;;;4980900;28;20229;-81
2022/03/31 00:44:13;;;;;;;23.33;18.27;;;8.80;99.90;;;;;;4981452;28;20263;-80
2022/03/31 00:46:47;;;;;;;23.58;17.70;;;8.80;99.90;;;;;;4980921;28;20208;-80
2022/03/31 00:49:14;;;;;;;24.25;19.48;;;8.80;99.90;;;;;;4981225;28;20211;-80
2022/03/31 00:51:40;;;;;;;20.08;17.27;;;8.70;99.90;;;;;;4980917;28;20216;-80
2022/03/31 00:54:07;;;;;;;19.55;16.15;;;8.70;99.90;;;;;;4980897;28;20236;-81
2022/03/31 00:56:34;;;;;;;24.10;18.45;;;8.60;99.90;;;;;;4981235;28;20198;-80
2022/03/31 00:59:02;;;;;;;25.50;17.20;;;8.60;99.90;;;;;;4980696;28;20224;-81
2022/03/31 01:01:31;;;;;;;23.50;16.60;;;8.50;99.90;;;;;;4980486;28;20213;-80
2022/03/31 01:03:58;;;;;;;25.02;19.75;;;8.50;99.90;;;;;;4980100;28;20242;-79
2022/03/31 01:06:25;;;;;;;25.98;16.60;;;8.50;99.90;;;;;;4979754;28;20212;-80
2022/03/31 01:08:52;;;;;;;21.95;17.42;;;8.50;99.90;;;;;;4980825;28;20212;-81
2022/03/31 01:11:19;;;;;;;22.83;17.17;;;8.50;99.90;;;;;;4979567;28;20255;-80
2022/03/31 01:13:46;;;;;;;22.83;17.52;;;8.50;99.90;;;;;;4979996;28;20715;-81
2022/03/31 01:16:12;;;;;;;21.08;17.40;;;8.50;99.90;;;;;;4980284;28;20678;-80
2022/03/31 01:18:40;;;;;;;22.17;17.92;;;8.40;99.90;;;;;;4979350;28;20665;-81
2022/03/31 01:21:09;;;;;;;22.30;17.83;;;8.50;99.90;;;;;;4979719;28;20251;-80
2022/03/31 01:23:38;;;;;;;20.77;16.63;;;8.40;99.90;;;;;;4979970;28;20332;-81
2022/03/31 01:26:08;;;;;;;25.50;18.35;;;8.30;99.90;;;;;;4979876;28;20205;-81
2022/03/31 01:28:37;;;;;;;24.40;18.98;;;8.40;99.90;;;;;;4980243;28;20200;-81
2022/03/31 01:31:04;;;;;;;26.05;18.35;;;8.50;99.90;;;;;;4979356;28;20201;-81
2022/03/31 01:33:32;;;;;;;22.33;17.40;;;8.50;99.90;;;;;;4980474;28;20241;-80
2022/03/31 01:35:59;;;;;;;28.10;19.80;;;8.50;99.90;;;;;;4980062;28;20289;-81
2022/03/31 01:38:26;;;;;;;29.27;17.90;;;8.50;99.90;;;;;;4979290;28;20225;-80
2022/03/31 01:40:54;;;;;;;27.08;18.35;;;8.30;99.90;;;;;;4978592;28;20228;-79
2022/03/31 01:43:21;;;;;;;29.92;20.20;;;8.20;99.90;;;;;;4979374;28;20222;-79
2022/03/31 01:45:48;;;;;;;24.42;19.27;;;8.20;99.90;;;;;;4979286;28;20201;-81
2022/03/31 01:48:16;;;;;;;27.52;18.52;;;8.00;99.90;;;;;;4979699;28;20213;-81
2022/03/31 01:50:42;;;;;;;20.35;16.20;;;7.90;99.90;;;;;;4979638;28;20232;-80
2022/03/31 01:53:09;;;;;;;23.10;18.40;;;7.60;99.90;;;;;;4979942;28;20232;-80
2022/03/31 01:55:36;;;;;;;21.48;17.30;;;7.70;99.90;;;;;;4979625;28;20218;-80
2022/03/31 01:58:04;;;;;;;25.95;19.42;;;7.70;99.90;;;;;;4979645;28;20208;-81
2022/03/31 02:00:31;;;;;;;24.23;18.08;;;7.70;99.90;;;;;;4978855;28;20209;-80
2022/03/31 02:02:59;;;;;;;24.75;18.15;;;7.70;99.90;;;;;;4979505;28;20216;-81
2022/03/31 02:05:26;;;;;;;23.27;17.98;;;7.70;99.90;;;;;;4979365;28;20261;-80
2022/03/31 02:07:55;;;;;;;21.80;16.73;;;7.70;99.90;;;;;;4979179;28;20211;-81
2022/03/31 02:10:21;;;;;;;25.42;19.20;;;7.80;99.90;;;;;;4978526;28;20224;-80
2022/03/31 02:12:48;;;;;;;26.23;18.58;;;7.60;99.90;;;;;;4977498;28;20579;-81
2022/03/31 02:15:16;;;;;;;20.15;15.93;;;7.40;99.90;;;;;;4978064;28;20216;-81
2022/03/31 02:17:43;;;;;;;19.00;15.20;;;7.50;99.90;;;;;;4978809;28;20364;-82
2022/03/31 02:20:10;;;;;;;24.85;17.27;;;7.50;99.90;;;;;;4978066;28;20232;-81
2022/03/31 02:22:37;;;;;;;26.95;17.85;;;7.50;99.90;;;;;;4977496;28;20215;-81
2022/03/31 02:25:07;;;;;;;25.80;17.38;;;7.40;99.90;;;;;;4977230;28;20224;-81
2022/03/31 02:27:34;;;;;;;23.05;16.70;;;7.40;99.90;;;;;;4978483;28;20213;-79
2022/03/31 02:30:01;;;;;;;26.58;18.10;;;7.30;99.90;;;;;;4978619;28;20324;-81
2022/03/31 02:32:29;;;;;;;22.25;16.42;;;7.30;99.90;;;;;;4977125;28;20204;-82
2022/03/31 02:34:56;;;;;;;26.73;17.33;;;7.30;99.90;;;;;;4978050;28;20227;-81
2022/03/31 02:37:23;;;;;;;28.83;18.92;;;7.30;99.90;;;;;;4979109;28;20584;-81
2022/03/31 02:39:50;;;;;;;23.52;16.45;;;7.30;99.90;;;;;;4977901;28;20224;-81
2022/03/31 02:42:17;;;;;;;25.92;17.98;;;7.50;99.90;;;;;;4977693;28;20208;-81
2022/03/31 02:44:44;;;;;;;19.35;16.20;;;7.60;99.90;;;;;;4977943;28;20229;-81
2022/03/31 02:47:11;;;;;;;19.92;15.85;;;7.70;99.90;;;;;;4978290;28;20209;-81
2022/03/31 02:49:40;;;;;;;20.92;16.00;;;7.80;99.90;;;;;;4977922;28;20201;-82
2022/03/31 02:52:08;;;;;;;25.77;21.25;;;7.80;99.90;;;;;;4977671;28;20237;-82
2022/03/31 02:57:19;;;;;;;22.25;17.55;;;7.60;99.90;;;;;;4958714;29;20248;-81
2022/03/31 02:59:46;;;;;;;22.02;15.40;;;7.40;99.90;;;;;;4959118;28;20268;-81
2022/03/31 03:02:13;;;;;;;21.17;15.82;;;7.30;99.90;;;;;;4978050;28;20204;-81
2022/03/31 03:04:41;;;;;;;21.20;16.70;;;7.30;99.90;;;;;;4978229;28;20254;-82
2022/03/31 03:07:08;;;;;;;16.85;14.50;;;7.50;99.90;;;;;;4976885;28;20204;-81
2022/03/31 03:09:36;;;;;;;20.75;17.20;;;7.50;99.90;;;;;;4977385;28;20208;-80
2022/03/31 03:12:05;;;;;;;18.20;14.10;;;7.50;99.90;;;;;;4977383;28;20275;-81
2022/03/31 03:14:31;;;;;;;19.63;17.38;;;7.50;99.90;;;;;;5051775;22;20270;-85
2022/03/31 03:16:59;;;;;;;19.27;14.35;;;7.40;99.90;;;;;;5042630;28;20218;-85
2022/03/31 03:19:26;;;;;;;18.15;14.73;;;7.50;99.90;;;;;;5048916;28;20678;-83
2022/03/31 03:21:54;;;;;;;17.98;14.85;;;7.30;99.90;;;;;;5061012;28;20206;-83
2022/03/31 03:24:22;;;;;;;19.02;15.68;;;7.30;99.90;;;;;;5052316;28;20231;-83
2022/03/31 03:26:49;;;;;;;21.88;16.95;;;7.30;99.90;;;;;;5041927;28;20337;-84
2022/03/31 03:29:16;;;;;;;22.35;17.00;;;7.20;99.90;;;;;;5044535;28;20198;-83
2022/03/31 03:31:43;;;;;;;20.58;15.77;;;7.10;99.90;;;;;;5034955;28;20214;-84
2022/03/31 03:34:10;;;;;;;23.15;16.20;;;7.20;99.90;;;;;;5034315;28;20236;-83
2022/03/31 03:36:37;;;;;;;22.30;15.88;;;7.10;99.90;;;;;;5044941;28;20206;-84
2022/03/31 03:39:06;;;;;;;25.80;18.80;;;7.10;99.90;;;;;;5044383;28;20245;-84
2022/03/31 03:41:32;;;;;;;25.27;17.65;;;7.00;99.90;;;;;;5045167;28;20571;-84
2022/03/31 03:43:59;;;;;;;19.95;15.85;;;6.90;99.90;;;;;;5044946;28;20233;-84
2022/03/31 03:46:26;;;;;;;24.25;20.08;;;6.80;99.90;;;;;;5045787;28;20585;-85
2022/03/31 03:48:53;;;;;;;21.10;17.25;;;6.70;99.90;;;;;;5035811;28;20199;-84
2022/03/31 03:51:19;;;;;;;25.38;17.33;;;6.70;99.90;;;;;;5025775;28;20199;-84
2022/03/31 03:53:46;;;;;;;24.10;17.90;;;6.60;99.90;;;;;;5038028;28;20746;-84
2022/03/31 03:56:14;;;;;;;24.65;18.55;;;6.50;99.90;;;;;;5031034;28;20214;-84
2022/03/31 03:58:41;;;;;;;24.55;19.35;;;6.50;99.90;;;;;;5027140;28;20664;-84
2022/03/31 04:01:08;;;;;;;22.65;17.35;;;6.40;99.90;;;;;;5027356;28;20668;-84
2022/03/31 04:03:34;;;;;;;22.48;18.40;;;6.40;99.90;;;;;;5027871;28;20223;-84
2022/03/31 04:06:01;;;;;;;23.77;17.42;;;6.40;99.90;;;;;;5043785;28;20209;-85
2022/03/31 04:08:28;;;;;;;22.02;19.17;;;6.40;99.90;;;;;;5037221;28;20218;-84
2022/03/31 04:10:55;;;;;;;21.98;17.60;;;6.50;99.90;;;;;;5030230;28;20208;-84
2022/03/31 04:13:23;;;;;;;20.27;18.17;;;6.50;99.90;;;;;;5030913;28;20203;-85
2022/03/31 04:15:50;;;;;;;23.60;17.65;;;6.50;99.90;;;;;;5026967;28;20195;-84
2022/03/31 04:18:17;;;;;;;24.20;18.10;;;6.50;99.90;;;;;;5037215;28;20230;-84
2022/03/31 04:20:43;;;;;;;24.25;18.10;;;6.40;99.90;;;;;;5045926;28;20246;-84
2022/03/31 04:23:10;;;;;;;25.48;20.58;;;6.30;99.90;;;;;;5034549;28;20207;-83
2022/03/31 04:25:37;;;;;;;22.60;17.98;;;6.30;99.90;;;;;;5025935;28;20206;-83
2022/03/31 04:28:05;;;;;;;22.60;17.85;;;6.20;99.90;;;;;;5036975;28;20206;-84
2022/03/31 04:30:33;;;;;;;24.92;18.73;;;6.20;99.90;;;;;;5046046;28;20213;-84
2022/03/31 04:32:59;;;;;;;25.25;19.33;;;6.10;99.90;;;;;;5045883;28;20214;-85
2022/03/31 04:35:26;;;;;;;23.98;18.80;;;6.00;99.90;;;;;;5045948;28;20234;-84
2022/03/31 04:37:53;;;;;;;23.85;18.77;;;6.00;99.90;;;;;;5044960;28;20198;-84
2022/03/31 04:40:20;;;;;;;21.77;19.10;;;6.10;99.90;;;;;;5045394;28;20215;-84
2022/03/31 04:42:47;;;;;;;23.83;19.27;;;6.00;99.90;;;;;;5045981;28;20209;-84
2022/03/31 04:45:14;;;;;;;23.65;21.10;;;6.00;99.90;;;;;;5045792;28;20230;-84
2022/03/31 04:47:42;;;;;;;23.45;19.60;;;5.90;99.90;;;;;;5040757;28;20219;-85
2022/03/31 04:50:09;;;;;;;24.95;19.20;;;6.00;99.90;;;;;;5026652;28;20901;-84
2022/03/31 04:52:36;;;;;;;26.52;22.20;;;6.10;99.90;;;;;;5039776;28;20207;-85
2022/03/31 04:55:03;;;;;;;23.00;18.25;;;6.10;99.90;;;;;;5048542;28;20625;-85
2022/03/31 04:57:29;;;;;;;28.35;20.48;;;6.00;99.90;;;;;;5032938;28;20203;-84
2022/03/31 04:59:56;;;;;;;27.17;23.27;;;6.00;99.90;;;;;;5025003;28;20252;-85
2022/03/31 05:02:23;;;;;;;22.38;18.67;;;6.10;99.90;;;;;;5035588;28;20198;-84
2022/03/31 05:04:51;;;;;;;24.48;21.30;;;6.10;99.90;;;;;;5030444;28;20223;-84
2022/03/31 05:07:18;;;;;;;28.90;20.13;;;6.10;99.90;;;;;;5028902;28;20208;-85
2022/03/31 05:09:45;;;;;;;26.48;21.60;;;5.90;99.90;;;;;;5031920;28;20200;-85
2022/03/31 05:12:12;;;;;;;27.15;21.67;;;5.90;99.90;;;;;;5024786;28;20211;-84
2022/03/31 05:14:39;;;;;;;23.13;20.10;;;5.90;99.90;;;;;;5025751;28;20234;-84
2022/03/31 05:17:06;;;;;;;27.13;22.88;;;6.00;99.90;;;;;;5026486;28;20234;-84
2022/03/31 05:19:33;;;;;;;27.85;20.45;;;5.90;99.90;;;;;;5026517;28;20222;-85
2022/03/31 05:22:02;;;;;;;24.30;21.08;;;5.90;99.90;;;;;;5025158;28;20573;-84
2022/03/31 05:24:28;;;;;;;25.88;21.30;;;6.10;99.90;;;;;;5025970;28;20226;-84
2022/03/31 05:26:55;;;;;;;29.17;20.85;;;6.00;99.90;;;;;;5034323;28;20198;-85
2022/03/31 05:29:23;;;;;;;30.15;22.02;;;6.10;99.90;;;;;;5045885;28;20202;-84
2022/03/31 05:31:50;;;;;;;25.83;21.20;;;6.00;99.90;;;;;;5044569;28;20206;-84
2022/03/31 05:34:18;;;;;;;25.25;19.80;;;6.20;99.90;;;;;;5046059;28;20237;-84
2022/03/31 05:36:46;;;;;;;29.08;22.48;;;6.30;99.90;;;;;;5027845;28;20227;-84
2022/03/31 05:39:14;;;;;;;32.95;18.80;;;6.40;99.90;;;;;;5026541;28;20210;-84
2022/03/31 05:41:41;;;;;;;26.63;20.30;;;6.50;99.90;;;;;;5026010;28;20238;-84
2022/03/31 05:44:08;;;;;;;23.60;18.27;;;6.60;99.90;;;;;;5026361;28;20222;-84
2022/03/31 05:46:34;;;;;;;24.23;18.10;;;6.60;99.90;;;;;;5027016;28;20207;-84
2022/03/31 05:49:02;;;;;;;21.30;17.90;;;6.60;99.90;;;;;;5045432;28;20213;-84
2022/03/31 05:51:29;;;;;;;24.90;17.42;;;6.50;99.90;;;;;;5045073;28;20207;-84
2022/03/31 05:53:55;;;;;;;23.02;17.50;;;6.50;99.90;;;;;;5056300;28;20214;-84
2022/03/31 05:56:23;;;;;;;26.15;18.70;;;6.40;99.90;;;;;;5056022;28;20217;-84
2022/03/31 05:58:51;;;;;;;22.40;19.02;;;6.40;99.90;;;;;;5029358;28;20195;-84
2022/03/31 06:01:19;;;;;;;26.70;19.33;;;6.50;99.90;;;;;;5046526;28;20242;-84
2022/03/31 06:03:46;;;;;;;29.88;20.42;;;6.40;99.90;;;;;;5041932;28;20261;-84
2022/03/31 06:06:13;;;;;;;24.63;19.15;;;6.50;99.90;;;;;;5026969;28;20207;-83
2022/03/31 06:08:39;;;;;;;26.40;19.70;;;6.50;99.90;;;;;;5030359;28;20199;-84
2022/03/31 06:11:06;;;;;;;24.92;20.90;;;6.60;99.90;;;;;;5045904;28;20205;-84
2022/03/31 06:13:34;;;;;;;22.63;17.25;;;6.70;99.90;;;;;;5047311;28;20218;-84
2022/03/31 06:16:01;;;;;;;26.95;20.13;;;6.90;99.90;;;;;;5047338;28;20206;-84
2022/03/31 06:18:27;;;;;;;24.15;19.50;;;7.00;99.90;;;;;;5046991;28;20212;-84
2022/03/31 06:20:54;;;;;;;20.90;18.15;;;7.00;99.90;;;;;;5046825;28;20226;-84
2022/03/31 06:23:22;;;;;;;25.10;18.42;;;6.90;99.90;;;;;;5046666;28;20218;-84
2022/03/31 06:25:49;;;;;;;24.98;20.77;;;6.90;99.90;;;;;;5046808;28;20236;-84
2022/03/31 06:28:16;;;;;;;22.35;18.55;;;6.90;99.90;;;;;;5045765;28;20206;-84
2022/03/31 06:30:47;;;;;;;24.48;18.02;;;7.00;99.90;;;;;;5046729;28;20214;-85
2022/03/31 06:33:15;;;;;;;23.80;18.15;;;7.00;99.90;;;;;;5041968;28;20793;-84
2022/03/31 06:35:42;;;;;;;24.73;18.60;;;6.90;99.90;;;;;;5034450;28;20206;-85
2022/03/31 06:38:08;;;;;;;25.27;18.08;;;6.90;99.90;;;;;;5042189;28;20210;-84
2022/03/31 06:40:37;;;;;;;19.77;17.70;;;6.80;99.90;;;;;;5026000;28;20241;-85
2022/03/31 06:43:05;;;;;;;23.98;19.27;;;6.80;99.90;;;;;;5029726;28;20237;-85
2022/03/31 06:45:32;;;;;;;25.05;20.33;;;6.80;99.90;;;;;;5049011;28;20226;-85
2022/03/31 06:48:01;;;;;;;20.27;17.92;;;6.90;99.90;;;;;;5034568;28;20207;-84
2022/03/31 06:50:30;;;;;;;23.30;18.80;;;6.90;99.90;;;;;;5027702;28;20207;-85
2022/03/31 06:52:58;;;;;;;23.95;18.10;;;6.80;99.90;;;;;;5029167;28;20227;-85
2022/03/31 06:55:25;;;;;;;24.73;18.77;;;6.90;99.90;;;;;;5029798;28;20243;-85
2022/03/31 06:57:52;;;;;;;22.42;18.35;;;7.20;99.90;;;;;;5044652;28;20208;-85
2022/03/31 07:00:20;;;;;;;27.02;17.70;;;7.10;99.90;;;;;;5049519;28;20245;-85
2022/03/31 07:02:49;;;;;;;22.70;17.83;;;7.20;99.90;;;;;;5035424;28;20687;-86
2022/03/31 07:05:36;;;;;;;24.33;18.25;;;7.20;99.90;;;;;;5033008;28;20271;-83
2022/03/31 07:08:03;;;;;;;21.85;18.75;;;7.30;99.90;;;;;;5055033;28;20274;-83
2022/03/31 07:10:30;;;;;;;28.67;21.88;;;7.20;99.90;;;;;;5017361;28;20204;-84
2022/03/31 07:12:56;;;;;;;22.55;18.70;;;7.10;99.90;;;;;;5029533;28;20207;-85
2022/03/31 07:15:24;;;;;;;22.95;19.55;;;7.20;99.90;;;;;;5030893;28;20237;-86
2022/03/31 07:17:51;;;;;;;21.65;18.98;;;7.10;99.90;;;;;;5032750;28;20195;-85
2022/03/31 07:20:18;;;;;;;23.20;18.30;;;6.90;99.90;;;;;;5031257;28;20224;-86
2022/03/31 07:22:48;;;;;;;26.58;20.98;;;7.10;99.90;;;;;;5044297;28;20206;-86
2022/03/31 07:25:16;;;;;;;24.92;18.23;;;7.30;99.90;;;;;;5032516;28;20223;-86
2022/03/31 07:27:44;;;;;;;24.80;19.10;;;7.30;99.90;;;;;;5026806;28;20214;-86
2022/03/31 07:30:12;;;;;;;26.63;16.45;;;7.20;99.90;;;;;;5024682;28;20214;-86
2022/03/31 07:32:47;;;;;;;27.48;20.35;;;7.10;99.90;;;;;;5030796;28;20203;-85
2022/03/31 07:35:14;;;;;;;21.40;16.58;;;7.10;99.90;;;;;;5021328;28;20230;-85
2022/03/31 07:37:41;;;;;;;22.13;16.88;;;7.20;99.90;;;;;;5031428;28;20195;-85
2022/03/31 07:40:10;;;;;;;25.35;19.88;;;7.20;99.90;;;;;;5024753;28;20203;-84
2022/03/31 07:42:37;;;;;;;22.40;18.50;;;7.20;99.90;;;;;;5026060;28;20211;-85
2022/03/31 07:45:04;;;;;;;22.77;17.95;;;7.40;99.90;;;;;;5022524;28;20245;-84
2022/03/31 07:47:31;;;;;;;18.35;16.33;;;7.20;99.90;;;;;;5022225;28;20208;-86
2022/03/31 07:49:58;;;;;;;23.48;17.48;;;7.40;99.90;;;;;;5028708;28;20207;-88
2022/03/31 07:52:25;;;;;;;25.40;20.08;;;7.50;99.90;;;;;;5025080;28;20280;-85
2022/03/31 07:55:00;;;;;;;25.40;22.02;;;7.40;99.90;;;;;;5026784;28;20253;-85
2022/03/31 07:57:28;;;;;;;27.40;18.33;;;7.20;99.90;;;;;;5041743;28;20636;-86
2022/03/31 07:59:55;;;;;;;23.13;18.52;;;7.10;99.90;;;;;;5036667;28;20195;-85
2022/03/31 08:02:24;;;;;;;21.52;16.98;;;7.20;99.90;;;;;;5022634;28;20223;-86
2022/03/31 08:04:51;;;;;;;23.35;19.20;;;7.30;99.90;;;;;;5023868;28;20589;-84
2022/03/31 08:07:18;;;;;;;20.90;17.20;;;7.30;99.90;;;;;;5036775;28;20411;-83
2022/03/31 08:09:45;;;;;;;24.50;19.45;;;7.10;99.90;;;;;;5055517;28;20215;-85
2022/03/31 08:12:12;;;;;;;23.42;18.20;;;7.20;99.90;;;;;;5045721;28;20472;-85
2022/03/31 08:14:40;;;;;;;23.55;17.90;;;7.20;99.90;;;;;;5040765;28;20293;-84
2022/03/31 08:17:08;;;;;;;26.75;19.25;;;7.00;99.90;;;;;;5042868;28;20210;-83
2022/03/31 08:19:35;;;;;;;28.13;19.08;;;7.00;99.90;;;;;;5043060;28;20214;-84
2022/03/31 08:22:02;;;;;;;24.33;20.10;;;7.00;99.90;;;;;;5041671;28;20222;-84
2022/03/31 08:24:29;;;;;;;23.67;18.45;;;7.20;99.90;;;;;;5031050;28;20231;-83
2022/03/31 08:26:58;;;;;;;24.92;19.13;;;7.40;99.90;;;;;;5020862;28;20210;-84
2022/03/31 08:29:25;;;;;;;25.15;19.33;;;7.60;99.90;;;;;;5018608;28;20230;-81
2022/03/31 08:31:55;;;;;;;18.77;14.60;;;7.80;99.90;;;;;;5043403;28;20217;-84
2022/03/31 08:34:22;;;;;;;24.13;17.75;;;7.70;99.90;;;;;;5044341;28;20231;-84
2022/03/31 08:36:49;;;;;;;25.15;19.35;;;7.50;99.90;;;;;;5027419;28;20218;-84
2022/03/31 08:39:16;;;;;;;24.05;20.30;;;7.50;99.90;;;;;;5026324;28;20218;-84
2022/03/31 08:41:44;;;;;;;23.10;17.63;;;7.50;99.90;;;;;;5033008;28;20226;-85
2022/03/31 08:44:11;;;;;;;27.38;19.85;;;7.40;99.90;;;;;;5046313;28;20231;-84
2022/03/31 08:46:40;;;;;;;30.15;21.92;;;7.30;99.90;;;;;;5033005;28;20211;-85
2022/03/31 08:49:10;;;;;;;24.10;18.67;;;7.40;99.90;;;;;;5027577;28;20204;-85
2022/03/31 08:51:38;;;;;;;27.65;20.00;;;7.60;99.90;;;;;;5038347;28;20207;-84
2022/03/31 08:54:08;;;;;;;22.73;18.20;;;7.70;99.90;;;;;;5038588;28;20222;-83
2022/03/31 08:56:34;;;;;;;22.48;17.73;;;8.00;99.90;;;;;;5026767;28;20217;-85
2022/03/31 08:59:01;;;;;;;21.33;19.23;;;8.20;99.90;;;;;;5033803;28;20234;-86
2022/03/31 09:01:30;;;;;;;24.02;18.25;;;8.50;99.90;;;;;;5029090;28;20230;-86
2022/03/31 09:03:57;;;;;;;24.23;19.37;;;8.90;99.90;;;;;;5029748;28;20255;-86
2022/03/31 09:06:28;;;;;;;22.00;17.43;;;9.30;99.90;;;;;;5028511;28;20460;-85
2022/03/31 09:08:56;;;;;;;19.60;17.50;;;9.70;99.90;;;;;;5034739;28;20451;-84
2022/03/31 09:11:27;;;;;;;19.90;17.70;;;10.00;99.90;;;;;;5025850;28;20456;-85
2022/03/31 09:13:58;;;;;;;21.50;15.80;;;10.30;99.90;;;;;;5030615;28;20484;-86
2022/03/31 09:16:34;;;;;;;26.23;18.70;;;10.20;99.90;;;;;;5041719;28;20457;-85
2022/03/31 09:19:02;;;;;;;23.33;18.73;;;10.30;99.90;;;;;;5042548;28;20521;-85
2022/03/31 09:21:31;;;;;;;20.70;16.53;;;10.50;99.90;;;;;;5037567;28;20488;-86
2022/03/31 09:24:00;;;;;;;25.27;19.70;;;10.60;99.90;;;;;;5022836;28;20481;-86
2022/03/31 09:26:31;;;;;;;23.50;17.83;;;10.50;99.90;;;;;;5035507;28;20559;-86
2022/03/31 09:29:12;;;;;;;20.47;17.00;;;10.40;99.90;;;;;;5045235;28;20524;-86
2022/03/31 09:31:40;;;;;;;21.27;18.47;;;10.60;99.90;;;;;;5054824;28;20427;-83
2022/03/31 09:34:08;;;;;;;20.30;17.17;;;10.90;99.90;;;;;;5057484;28;20487;-85
2022/03/31 09:36:37;;;;;;;20.27;16.30;;;11.00;99.90;;;;;;5052118;28;20466;-85
2022/03/31 09:39:07;;;;;;;22.60;18.60;;;11.20;99.90;;;;;;5050764;28;20529;-86
2022/03/31 09:41:35;;;;;;;21.63;17.63;;;11.50;99.90;;;;;;5041012;28;20489;-84
2022/03/31 09:44:05;;;;;;;19.03;15.30;;;11.70;99.90;;;;;;5041499;28;20472;-84
2022/03/31 09:46:34;;;;;;;18.30;16.50;;;11.90;99.90;;;;;;5030725;28;20462;-81
2022/03/31 09:49:11;;;;;;;20.43;16.63;;;11.90;99.90;;;;;;5036034;28;20500;-81
2022/03/31 09:51:40;;;;;;;21.90;19.57;;;11.50;99.90;;;;;;5028280;28;20483;-81
2022/03/31 09:54:06;;;;;;;19.57;17.30;;;11.60;99.90;;;;;;5004357;28;20469;-80
2022/03/31 09:56:35;;;;;;;22.63;18.97;;;11.20;99.90;;;;;;5010309;28;20457;-81
2022/03/31 09:59:04;;;;;;;21.90;17.67;;;10.90;99.90;;;;;;5020008;28;20464;-81
2022/03/31 10:01:31;;;;;;;20.80;18.60;;;10.90;99.90;;;;;;5022236;28;21208;-81
2022/03/31 10:03:58;;;;;;;24.60;19.83;;;11.00;99.90;;;;;;5032544;28;21025;-81
2022/03/31 10:06:26;;;;;;;20.07;16.80;;;10.90;99.90;;;;;;5039110;28;20548;-81
2022/03/31 10:08:57;;;;;;;26.07;17.90;;;11.10;99.90;;;;;;5039453;28;20482;-82
2022/03/31 10:11:27;;;;;;;28.37;18.50;;;11.00;99.90;;;;;;5025240;28;20922;-80
2022/03/31 10:14:03;;;;;;;26.20;20.30;;;11.10;99.90;;;;;;5019763;28;20910;-79
2022/03/31 10:16:38;;;;;;;20.60;18.37;;;11.00;99.90;;;;;;5034124;28;20453;-81
2022/03/31 10:19:04;;;;;;;23.93;16.17;;;11.00;99.90;;;;;;5038756;28;20466;-82
2022/03/31 10:21:31;;;;;;;21.63;17.10;;;11.10;99.90;;;;;;5022594;28;20986;-82
2022/03/31 10:26:44;;;;;;;21.53;17.50;;;10.90;99.90;;;;;;5036872;28;20504;-81
2022/03/31 10:29:13;;;;;;;18.53;16.60;;;11.30;99.90;;;;;;5035325;28;20448;-83
2022/03/31 10:31:42;;;;;;;18.63;16.53;;;11.50;99.90;;;;;;5033665;28;20958;-84
2022/03/31 10:34:10;;;;;;;17.67;15.47;;;11.90;99.90;;;;;;5022102;28;20833;-86
2022/03/31 10:36:40;;;;;;;17.50;15.60;;;12.30;99.90;;;;;;5027258;28;20446;-85
2022/03/31 10:39:09;;;;;;;19.43;15.40;;;12.50;99.90;;;;;;5030495;28;21010;-86
2022/03/31 10:41:38;;;;;;;16.93;15.07;;;12.80;99.90;;;;;;5030504;28;20549;-86
2022/03/31 10:44:16;;;;;;;15.87;14.10;;;13.10;99.90;;;;;;5014611;28;20481;-85
2022/03/31 10:46:45;;;;;;;17.40;14.87;;;13.30;99.90;;;;;;5046802;28;20443;-84
2022/03/31 10:49:17;;;;;;;17.70;15.00;;;13.30;99.90;;;;;;5049668;28;20453;-87
2022/03/31 10:51:46;;;;;;;19.20;15.67;;;13.30;99.90;;;;;;5028862;28;20457;-87
2022/03/31 10:54:30;;;;;;;17.60;15.70;;;12.90;99.20;;;;;;5029335;28;20458;-88
2022/03/31 10:57:06;;;;;;;22.73;17.00;;;12.70;99.90;;;;;;5031015;28;20471;-85
2022/03/31 10:59:33;;;;;;;20.27;16.77;;;12.70;99.90;;;;;;5049670;28;20448;-87
2022/03/31 11:02:08;;;;;;;18.93;16.93;;;12.30;99.90;;;;;;5025991;28;20481;-87
2022/03/31 11:04:46;;;;;;;18.00;15.60;;;11.90;99.90;;;;;;5025466;28;20527;-86
2022/03/31 11:07:18;;;;;;;28.90;17.63;;;11.70;99.90;;;;;;5041985;28;20465;-87
2022/03/31 11:09:46;;;;;;;21.27;17.00;;;11.50;99.90;;;;;;5024938;28;20481;-86
2022/03/31 11:12:25;;;;;;;20.67;18.00;;;11.70;99.90;;;;;;5023660;28;20453;-85
2022/03/31 11:14:57;;;;;;;18.17;16.40;;;11.60;99.90;;;;;;5041648;28;20495;-85
2022/03/31 11:17:25;;;;;;;21.47;17.73;;;11.70;99.90;;;;;;5042320;28;20529;-87
2022/03/31 11:19:55;;;;;;;22.50;18.20;;;11.70;99.90;;;;;;5048008;28;20460;-86
2022/03/31 11:22:26;;;;;;;20.23;17.37;;;11.60;99.90;;;;;;5050801;28;20488;-87
2022/03/31 11:24:56;;;;;;;23.07;20.07;;;11.70;99.90;;;;;;5052959;28;20469;-87
2022/03/31 11:27:36;;;;;;;22.10;17.23;;;12.00;99.90;;;;;;5043180;28;20477;-86
2022/03/31 11:30:04;;;;;;;19.23;16.57;;;12.20;99.90;;;;;;5024283;28;20503;-82
2022/03/31 11:32:32;;;;;;;22.80;17.80;;;11.90;99.90;;;;;;5028565;28;20448;-82
2022/03/31 11:34:59;;;;;;;20.83;18.20;;;12.10;99.90;;;;;;5045635;28;20515;-85
2022/03/31 11:37:26;;;;;;;22.80;17.30;;;11.80;99.90;;;;;;5045852;28;20528;-86
2022/03/31 11:39:54;;;;;;;22.60;17.30;;;11.70;99.90;;;;;;5047079;28;20516;-85
2022/03/31 11:42:22;;;;;;;17.97;15.67;;;11.50;99.90;;;;;;5047532;28;20484;-86
2022/03/31 11:44:49;;;;;;;23.00;18.87;;;11.50;99.90;;;;;;5045908;28;20547;-84
2022/03/31 11:47:20;;;;;;;19.80;16.60;;;11.30;99.90;;;;;;5046770;28;20467;-85
2022/03/31 11:49:58;;;;;;;20.43;16.80;;;11.40;99.90;;;;;;5047131;28;20444;-86
2022/03/31 11:52:32;;;;;;;19.03;16.17;;;11.30;99.90;;;;;;5046432;28;20451;-86
2022/03/31 11:55:14;;;;;;;18.67;15.60;;;11.40;99.90;;;;;;5032554;28;20480;-84
2022/03/31 11:57:52;;;;;;;20.63;16.60;;;11.20;99.90;;;;;;5024233;28;20780;-86
2022/03/31 12:00:20;;;;;;;20.07;16.83;;;11.40;99.90;;;;;;5027024;28;20479;-86
2022/03/31 12:03:02;;;;;;;20.23;17.20;;;11.50;99.90;;;;;;5043501;28;20488;-84
2022/03/31 12:05:33;;;;;;;17.43;15.43;;;11.70;99.90;;;;;;5042837;28;20482;-85
2022/03/31 12:08:01;;;;;;;18.80;16.27;;;12.10;99.90;;;;;;5036434;28;20461;-82
2022/03/31 12:10:30;;;;;;;17.27;15.47;;;12.30;99.90;;;;;;5029981;28;20464;-87
2022/03/31 12:13:01;;;;;;;17.87;15.47;;;12.10;99.90;;;;;;5025919;28;20453;-86
2022/03/31 12:15:29;;;;;;;22.13;16.97;;;12.40;99.90;;;;;;5043968;28;20873;-87
2022/03/31 12:17:58;;;;;;;20.67;16.97;;;12.40;99.90;;;;;;5030205;28;20521;-86
2022/03/31 12:20:25;;;;;;;19.27;17.40;;;12.50;99.90;;;;;;5035662;28;20483;-87
2022/03/31 12:22:52;;;;;;;19.27;17.00;;;12.90;99.90;;;;;;5040918;28;20555;-86
2022/03/31 12:25:32;;;;;;;19.37;15.57;;;13.10;99.90;;;;;;5033550;28;20470;-85
2022/03/31 12:28:02;;;;;;;20.37;18.13;;;13.30;99.90;;;;;;5040656;28;20457;-86
2022/03/31 12:30:39;;;;;;;17.13;15.43;;;13.20;99.90;;;;;;5023261;28;20495;-85
2022/03/31 12:33:17;;;;;;;20.57;17.77;;;13.10;99.90;;;;;;5037401;28;20445;-86
2022/03/31 12:35:43;;;;;;;20.17;16.93;;;13.10;99.90;;;;;;5025127;28;20484;-85
2022/03/31 12:38:10;;;;;;;23.00;17.20;;;12.80;99.90;;;;;;5042295;28;20441;-86
2022/03/31 12:40:43;;;;;;;22.47;19.47;;;12.70;99.90;;;;;;5029330;28;20457;-86
2022/03/31 12:43:10;;;;;;;20.57;16.97;;;12.60;99.90;;;;;;5032435;28;20480;-87
2022/03/31 12:45:38;;;;;;;20.60;18.00;;;12.40;99.90;;;;;;5034867;28;21230;-85
2022/03/31 12:48:09;;;;;;;20.30;17.10;;;12.10;99.90;;;;;;5042515;28;20449;-85